sensor_id;sensor_type;location;lat;lon;timestamp;pressure;altitude;pressure_sealevel;temperature;humidity
33185;BME280;19550;42.872;25.494;2023-06-01T00:01:44;96553.09;;;13.97;100.00
33185;BME280;19550;42.872;25.494;2023-06-01T00:04:12;96554.44;;;13.90;100.00
33185;BME280;19550;42.872;25.494;2023-06-01T00:06:39;96552.16;;;13.92;100.00
33185;BME280;19550;42.872;25.494;2023-06-01T00:09:06;96546.38;;;13.98;100.00
33185;BME280;19550;42.872;25.494;2023-06-01T00:11:35;96542.97;;;13.92;100.00
33185;BME280;19550;42.872;25.494;2023-06-01T00:14:02;96549.03;;;13.94;100.00
33185;BME280;19550;42.872;25.494;2023-06-01T00:16:29;96549.69;;;13.91;100.00
33185;BME280;19550;42.872;25.494;2023-06-01T00:18:56;96546.50;;;13.80;100.00
33185;BME280;19550;42.872;25.494;2023-06-01T00:21:26;96554.72;;;13.77;100.00
33185;BME280;19550;42.872;25.494;2023-06-01T00:23:53;96553.56;;;13.78;100.00
33185;BME280;19550;42.872;25.494;2023-06-01T00:26:20;96558.13;;;13.82;100.00
33185;BME280;19550;42.872;25.494;2023-06-01T00:28:48;96563.44;;;13.75;100.00
33185;BME280;19550;42.872;25.494;2023-06-01T00:31:15;96561.16;;;13.69;100.00
33185;BME280;19550;42.872;25.494;2023-06-01T00:33:42;96554.34;;;13.58;100.00
33185;BME280;19550;42.872;25.494;2023-06-01T00:36:09;96557.28;;;13.61;100.00
33185;BME280;19550;42.872;25.494;2023-06-01T00:38:36;96549.56;;;13.58;100.00
33185;BME280;19550;42.872;25.494;2023-06-01T00:41:03;96554.00;;;13.59;100.00
33185;BME280;19550;42.872;25.494;2023-06-01T00:43:30;96548.44;;;13.59;100.00
33185;BME280;19550;42.872;25.494;2023-06-01T00:45:58;96547.47;;;13.55;100.00
33185;BME280;19550;42.872;25.494;2023-06-01T00:48:25;96559.44;;;13.56;100.00
33185;BME280;19550;42.872;25.494;2023-06-01T00:50:52;96551.41;;;13.54;100.00
33185;BME280;19550;42.872;25.494;2023-06-01T00:53:20;96547.66;;;13.50;100.00
33185;BME280;19550;42.872;25.494;2023-06-01T00:55:47;96554.75;;;13.39;100.00
33185;BME280;19550;42.872;25.494;2023-06-01T00:58:14;96543.03;;;13.25;100.00
33185;BME280;19550;42.872;25.494;2023-06-01T01:00:41;96545.19;;;13.19;100.00
33185;BME280;19550;42.872;25.494;2023-06-01T01:03:10;96543.72;;;13.22;100.00
33185;BME280;19550;42.872;25.494;2023-06-01T01:05:39;96550.91;;;13.23;100.00
33185;BME280;19550;42.872;25.494;2023-06-01T01:08:12;96547.16;;;13.19;100.00
33185;BME280;19550;42.872;25.494;2023-06-01T01:10:44;96557.78;;;13.17;100.00
33185;BME280;19550;42.872;25.494;2023-06-01T01:13:15;96547.03;;;13.15;100.00
33185;BME280;19550;42.872;25.494;2023-06-01T01:15:51;96554.56;;;13.15;100.00
33185;BME280;19550;42.872;25.494;2023-06-01T01:18:25;96547.97;;;13.10;100.00
33185;BME280;19550;42.872;25.494;2023-06-01T01:21:00;96555.38;;;13.15;100.00
33185;BME280;19550;42.872;25.494;2023-06-01T01:23:36;96550.94;;;13.05;100.00
33185;BME280;19550;42.872;25.494;2023-06-01T01:26:19;96544.56;;;13.05;100.00
33185;BME280;19550;42.872;25.494;2023-06-01T01:28:54;96548.38;;;12.92;100.00
33185;BME280;19550;42.872;25.494;2023-06-01T01:31:26;96552.94;;;12.96;100.00
33185;BME280;19550;42.872;25.494;2023-06-01T01:33:55;96547.88;;;12.90;100.00
33185;BME280;19550;42.872;25.494;2023-06-01T01:36:23;96555.78;;;12.79;100.00
33185;BME280;19550;42.872;25.494;2023-06-01T01:38:50;96557.09;;;12.73;100.00
33185;BME280;19550;42.872;25.494;2023-06-01T01:41:17;96561.69;;;12.69;100.00
33185;BME280;19550;42.872;25.494;2023-06-01T01:43:44;96554.81;;;12.75;100.00
33185;BME280;19550;42.872;25.494;2023-06-01T01:46:21;96548.88;;;12.77;100.00
33185;BME280;19550;42.872;25.494;2023-06-01T01:48:54;96542.03;;;12.74;100.00
33185;BME280;19550;42.872;25.494;2023-06-01T01:51:27;96558.06;;;12.77;100.00
33185;BME280;19550;42.872;25.494;2023-06-01T01:53:56;96555.78;;;12.70;100.00
33185;BME280;19550;42.872;25.494;2023-06-01T01:56:24;96552.53;;;12.68;100.00
33185;BME280;19550;42.872;25.494;2023-06-01T01:58:53;96556.59;;;12.71;100.00
33185;BME280;19550;42.872;25.494;2023-06-01T02:01:22;96556.47;;;12.67;100.00
33185;BME280;19550;42.872;25.494;2023-06-01T02:03:58;96573.47;;;12.74;100.00
33185;BME280;19550;42.872;25.494;2023-06-01T02:06:25;96565.63;;;12.59;100.00
33185;BME280;19550;42.872;25.494;2023-06-01T02:08:52;96564.31;;;12.57;100.00
33185;BME280;19550;42.872;25.494;2023-06-01T02:11:19;96564.81;;;12.59;100.00
33185;BME280;19550;42.872;25.494;2023-06-01T02:13:46;96566.94;;;12.53;100.00
33185;BME280;19550;42.872;25.494;2023-06-01T02:16:13;96567.44;;;12.47;100.00
33185;BME280;19550;42.872;25.494;2023-06-01T02:18:43;96566.63;;;12.46;100.00
33185;BME280;19550;42.872;25.494;2023-06-01T02:21:11;96568.91;;;12.53;100.00
33185;BME280;19550;42.872;25.494;2023-06-01T02:23:38;96562.53;;;12.52;100.00
33185;BME280;19550;42.872;25.494;2023-06-01T02:26:06;96570.72;;;12.49;100.00
33185;BME280;19550;42.872;25.494;2023-06-01T02:28:33;96570.53;;;12.45;100.00
33185;BME280;19550;42.872;25.494;2023-06-01T02:30:59;96564.03;;;12.50;100.00
33185;BME280;19550;42.872;25.494;2023-06-01T02:33:26;96569.59;;;12.41;100.00
33185;BME280;19550;42.872;25.494;2023-06-01T02:35:54;96570.06;;;12.34;100.00
33185;BME280;19550;42.872;25.494;2023-06-01T02:38:22;96572.03;;;12.25;100.00
33185;BME280;19550;42.872;25.494;2023-06-01T02:40:49;96572.34;;;12.24;100.00
33185;BME280;19550;42.872;25.494;2023-06-01T02:43:16;96574.63;;;12.30;100.00
33185;BME280;19550;42.872;25.494;2023-06-01T02:45:42;96577.75;;;12.29;100.00
33185;BME280;19550;42.872;25.494;2023-06-01T02:48:09;96573.50;;;12.31;100.00
33185;BME280;19550;42.872;25.494;2023-06-01T02:50:36;96580.69;;;12.24;100.00
33185;BME280;19550;42.872;25.494;2023-06-01T02:53:04;96574.13;;;12.37;100.00
33185;BME280;19550;42.872;25.494;2023-06-01T02:55:31;96576.63;;;12.21;100.00
33185;BME280;19550;42.872;25.494;2023-06-01T02:57:58;96581.19;;;12.17;100.00
33185;BME280;19550;42.872;25.494;2023-06-01T03:00:25;96577.75;;;12.03;100.00
33185;BME280;19550;42.872;25.494;2023-06-01T03:02:52;96581.03;;;11.97;100.00
33185;BME280;19550;42.872;25.494;2023-06-01T03:05:19;96575.63;;;12.00;100.00
33185;BME280;19550;42.872;25.494;2023-06-01T03:07:47;96583.81;;;11.97;100.00
33185;BME280;19550;42.872;25.494;2023-06-01T03:10:15;96575.13;;;11.98;100.00
33185;BME280;19550;42.872;25.494;2023-06-01T03:12:42;96577.75;;;11.94;100.00
33185;BME280;19550;42.872;25.494;2023-06-01T03:15:09;96579.38;;;11.96;100.00
33185;BME280;19550;42.872;25.494;2023-06-01T03:17:36;96575.13;;;11.98;100.00
33185;BME280;19550;42.872;25.494;2023-06-01T03:20:03;96576.59;;;12.04;100.00
33185;BME280;19550;42.872;25.494;2023-06-01T03:22:40;96582.47;;;12.11;100.00
33185;BME280;19550;42.872;25.494;2023-06-01T03:25:07;96580.53;;;12.20;100.00
33185;BME280;19550;42.872;25.494;2023-06-01T03:27:35;96589.69;;;12.29;100.00
33185;BME280;19550;42.872;25.494;2023-06-01T03:30:03;96586.44;;;12.36;100.00
33185;BME280;19550;42.872;25.494;2023-06-01T03:32:35;96591.16;;;12.44;100.00
33185;BME280;19550;42.872;25.494;2023-06-01T03:35:02;96588.69;;;12.51;100.00
33185;BME280;19550;42.872;25.494;2023-06-01T03:37:29;96585.25;;;12.54;100.00
33185;BME280;19550;42.872;25.494;2023-06-01T03:39:56;96588.38;;;12.61;100.00
33185;BME280;19550;42.872;25.494;2023-06-01T03:42:23;96586.72;;;12.69;100.00
33185;BME280;19550;42.872;25.494;2023-06-01T03:44:51;96586.88;;;12.72;100.00
33185;BME280;19550;42.872;25.494;2023-06-01T03:47:18;96584.72;;;12.78;100.00
33185;BME280;19550;42.872;25.494;2023-06-01T03:49:45;96583.41;;;12.84;100.00
33185;BME280;19550;42.872;25.494;2023-06-01T03:52:12;96582.44;;;12.89;100.00
33185;BME280;19550;42.872;25.494;2023-06-01T03:54:41;96577.94;;;13.05;100.00
33185;BME280;19550;42.872;25.494;2023-06-01T03:57:08;96560.94;;;12.98;100.00
33185;BME280;19550;42.872;25.494;2023-06-01T03:59:35;96574.34;;;13.22;100.00
33185;BME280;19550;42.872;25.494;2023-06-01T04:02:04;96583.13;;;13.32;100.00
33185;BME280;19550;42.872;25.494;2023-06-01T04:04:33;96578.69;;;13.40;100.00
33185;BME280;19550;42.872;25.494;2023-06-01T04:07:00;96585.88;;;13.41;100.00
33185;BME280;19550;42.872;25.494;2023-06-01T04:09:28;96578.50;;;13.36;100.00
33185;BME280;19550;42.872;25.494;2023-06-01T04:11:55;96570.50;;;13.35;100.00
33185;BME280;19550;42.872;25.494;2023-06-01T04:14:21;96582.25;;;13.49;100.00
33185;BME280;19550;42.872;25.494;2023-06-01T04:16:48;96577.25;;;13.63;100.00
33185;BME280;19550;42.872;25.494;2023-06-01T04:19:16;96577.81;;;13.77;100.00
33185;BME280;19550;42.872;25.494;2023-06-01T04:21:43;96587.31;;;13.76;100.00
33185;BME280;19550;42.872;25.494;2023-06-01T04:24:11;96587.28;;;13.85;100.00
33185;BME280;19550;42.872;25.494;2023-06-01T04:26:37;96579.75;;;13.85;100.00
33185;BME280;19550;42.872;25.494;2023-06-01T04:29:05;96583.22;;;13.82;100.00
33185;BME280;19550;42.872;25.494;2023-06-01T04:31:34;96581.03;;;13.88;100.00
33185;BME280;19550;42.872;25.494;2023-06-01T04:34:01;96586.41;;;13.93;100.00
33185;BME280;19550;42.872;25.494;2023-06-01T04:36:29;96579.09;;;14.09;100.00
33185;BME280;19550;42.872;25.494;2023-06-01T04:38:56;96583.03;;;14.08;100.00
33185;BME280;19550;42.872;25.494;2023-06-01T04:41:23;96581.59;;;14.23;100.00
33185;BME280;19550;42.872;25.494;2023-06-01T04:43:51;96569.56;;;14.31;100.00
33185;BME280;19550;42.872;25.494;2023-06-01T04:46:19;96570.03;;;14.42;100.00
33185;BME280;19550;42.872;25.494;2023-06-01T04:48:48;96571.50;;;14.60;100.00
33185;BME280;19550;42.872;25.494;2023-06-01T04:51:17;96575.06;;;14.81;100.00
33185;BME280;19550;42.872;25.494;2023-06-01T04:53:47;96577.19;;;14.96;100.00
33185;BME280;19550;42.872;25.494;2023-06-01T04:56:17;96570.03;;;15.20;100.00
33185;BME280;19550;42.872;25.494;2023-06-01T04:58:45;96574.50;;;15.45;100.00
33185;BME280;19550;42.872;25.494;2023-06-01T05:01:12;96567.31;;;15.56;100.00
33185;BME280;19550;42.872;25.494;2023-06-01T05:03:41;96572.34;;;15.75;100.00
33185;BME280;19550;42.872;25.494;2023-06-01T05:06:08;96575.94;;;16.00;100.00
33185;BME280;19550;42.872;25.494;2023-06-01T05:08:36;96580.59;;;16.08;100.00
33185;BME280;19550;42.872;25.494;2023-06-01T05:11:04;96582.53;;;16.19;100.00
33185;BME280;19550;42.872;25.494;2023-06-01T05:13:32;96575.88;;;16.24;100.00
33185;BME280;19550;42.872;25.494;2023-06-01T05:16:00;96574.59;;;16.34;100.00
33185;BME280;19550;42.872;25.494;2023-06-01T05:18:27;96577.22;;;16.54;100.00
33185;BME280;19550;42.872;25.494;2023-06-01T05:20:54;96575.22;;;16.67;100.00
33185;BME280;19550;42.872;25.494;2023-06-01T05:23:21;96576.88;;;16.84;100.00
33185;BME280;19550;42.872;25.494;2023-06-01T05:25:47;96579.19;;;16.94;100.00
33185;BME280;19550;42.872;25.494;2023-06-01T05:28:16;96587.41;;;17.02;100.00
33185;BME280;19550;42.872;25.494;2023-06-01T05:30:43;96587.44;;;17.18;100.00
33185;BME280;19550;42.872;25.494;2023-06-01T05:33:09;96591.72;;;17.43;100.00
33185;BME280;19550;42.872;25.494;2023-06-01T05:35:36;96588.47;;;17.57;100.00
33185;BME280;19550;42.872;25.494;2023-06-01T05:38:03;96590.69;;;17.64;100.00
33185;BME280;19550;42.872;25.494;2023-06-01T05:40:30;96583.63;;;17.70;100.00
33185;BME280;19550;42.872;25.494;2023-06-01T05:42:57;96581.16;;;17.84;100.00
33185;BME280;19550;42.872;25.494;2023-06-01T05:45:25;96583.59;;;18.01;100.00
33185;BME280;19550;42.872;25.494;2023-06-01T05:47:52;96588.75;;;18.15;100.00
33185;BME280;19550;42.872;25.494;2023-06-01T05:50:19;96577.66;;;18.22;100.00
33185;BME280;19550;42.872;25.494;2023-06-01T05:52:46;96578.81;;;18.37;98.87
33185;BME280;19550;42.872;25.494;2023-06-01T05:55:12;96586.63;;;18.62;98.50
33185;BME280;19550;42.872;25.494;2023-06-01T05:57:39;96589.44;;;18.82;97.88
33185;BME280;19550;42.872;25.494;2023-06-01T06:00:07;96582.56;;;18.98;96.59
33185;BME280;19550;42.872;25.494;2023-06-01T06:02:37;96583.69;;;19.13;96.30
33185;BME280;19550;42.872;25.494;2023-06-01T06:05:05;96596.50;;;19.33;94.90
33185;BME280;19550;42.872;25.494;2023-06-01T06:07:32;96587.38;;;19.59;93.96
33185;BME280;19550;42.872;25.494;2023-06-01T06:09:59;96586.44;;;19.74;93.88
33185;BME280;19550;42.872;25.494;2023-06-01T06:12:26;96592.28;;;19.89;92.69
33185;BME280;19550;42.872;25.494;2023-06-01T06:14:53;96593.34;;;20.03;91.57
33185;BME280;19550;42.872;25.494;2023-06-01T06:17:21;96599.66;;;20.19;92.03
33185;BME280;19550;42.872;25.494;2023-06-01T06:19:49;96595.22;;;20.45;91.28
33185;BME280;19550;42.872;25.494;2023-06-01T06:22:16;96594.97;;;20.53;89.32
33185;BME280;19550;42.872;25.494;2023-06-01T06:24:43;96597.16;;;20.67;88.61
33185;BME280;19550;42.872;25.494;2023-06-01T06:27:10;96595.50;;;20.92;86.88
33185;BME280;19550;42.872;25.494;2023-06-01T06:29:37;96598.56;;;21.14;87.29
33185;BME280;19550;42.872;25.494;2023-06-01T06:32:04;96600.34;;;21.25;86.37
33185;BME280;19550;42.872;25.494;2023-06-01T06:34:31;96600.06;;;21.37;86.92
33185;BME280;19550;42.872;25.494;2023-06-01T06:37:03;96600.69;;;21.57;86.36
33185;BME280;19550;42.872;25.494;2023-06-01T06:39:30;96586.56;;;21.54;85.82
33185;BME280;19550;42.872;25.494;2023-06-01T06:41:57;96602.53;;;21.79;84.53
33185;BME280;19550;42.872;25.494;2023-06-01T06:44:24;96590.94;;;21.92;79.56
33185;BME280;19550;42.872;25.494;2023-06-01T06:46:51;96591.97;;;22.13;82.46
33185;BME280;19550;42.872;25.494;2023-06-01T06:49:18;96591.28;;;22.31;81.72
33185;BME280;19550;42.872;25.494;2023-06-01T06:51:45;96587.28;;;22.35;82.97
33185;BME280;19550;42.872;25.494;2023-06-01T06:54:13;96591.50;;;22.63;81.79
33185;BME280;19550;42.872;25.494;2023-06-01T06:56:40;96597.69;;;22.82;82.53
33185;BME280;19550;42.872;25.494;2023-06-01T06:59:08;96585.19;;;22.80;79.87
33185;BME280;19550;42.872;25.494;2023-06-01T07:01:35;96596.16;;;22.92;80.29
33185;BME280;19550;42.872;25.494;2023-06-01T07:04:03;96594.13;;;22.96;79.74
33185;BME280;19550;42.872;25.494;2023-06-01T07:06:31;96590.59;;;23.17;82.13
33185;BME280;19550;42.872;25.494;2023-06-01T07:08:57;96597.13;;;23.31;82.36
33185;BME280;19550;42.872;25.494;2023-06-01T07:11:27;96595.94;;;23.43;81.96
33185;BME280;19550;42.872;25.494;2023-06-01T07:13:54;96598.44;;;23.62;80.59
33185;BME280;19550;42.872;25.494;2023-06-01T07:16:22;96590.31;;;23.47;78.33
33185;BME280;19550;42.872;25.494;2023-06-01T07:18:50;96587.94;;;23.63;77.57
33185;BME280;19550;42.872;25.494;2023-06-01T07:21:17;96587.50;;;23.57;74.56
33185;BME280;19550;42.872;25.494;2023-06-01T07:23:45;96581.88;;;23.64;75.74
33185;BME280;19550;42.872;25.494;2023-06-01T07:26:12;96587.16;;;23.84;72.95
33185;BME280;19550;42.872;25.494;2023-06-01T07:28:40;96590.41;;;23.96;71.88
33185;BME280;19550;42.872;25.494;2023-06-01T07:31:08;96585.97;;;24.09;68.67
33185;BME280;19550;42.872;25.494;2023-06-01T07:33:34;96575.44;;;24.21;61.48
33185;BME280;19550;42.872;25.494;2023-06-01T07:36:03;96564.91;;;24.49;63.59
33185;BME280;19550;42.872;25.494;2023-06-01T07:38:31;96562.88;;;24.53;62.25
33185;BME280;19550;42.872;25.494;2023-06-01T07:40:58;96571.72;;;24.84;62.11
33185;BME280;19550;42.872;25.494;2023-06-01T07:43:25;96571.72;;;24.84;60.22
33185;BME280;19550;42.872;25.494;2023-06-01T07:45:53;96564.81;;;24.81;59.94
33185;BME280;19550;42.872;25.494;2023-06-01T07:48:20;96569.28;;;24.86;59.16
33185;BME280;19550;42.872;25.494;2023-06-01T07:50:47;96566.84;;;24.95;59.86
33185;BME280;19550;42.872;25.494;2023-06-01T07:53:16;96570.88;;;24.94;57.60
33185;BME280;19550;42.872;25.494;2023-06-01T07:55:43;96566.81;;;25.02;53.03
33185;BME280;19550;42.872;25.494;2023-06-01T07:58:10;96565.47;;;25.31;57.68
33185;BME280;19550;42.872;25.494;2023-06-01T08:00:37;96560.06;;;25.55;51.58
33185;BME280;19550;42.872;25.494;2023-06-01T08:03:05;96562.44;;;25.67;47.29
33185;BME280;19550;42.872;25.494;2023-06-01T08:05:34;96549.94;;;25.57;47.85
33185;BME280;19550;42.872;25.494;2023-06-01T08:08:01;96551.09;;;25.67;46.59
33185;BME280;19550;42.872;25.494;2023-06-01T08:10:28;96549.75;;;25.86;47.54
33185;BME280;19550;42.872;25.494;2023-06-01T08:12:55;96560.06;;;26.17;48.57
33185;BME280;19550;42.872;25.494;2023-06-01T08:15:23;96553.94;;;26.26;45.82
33185;BME280;19550;42.872;25.494;2023-06-01T08:17:51;96551.94;;;26.19;46.02
33185;BME280;19550;42.872;25.494;2023-06-01T08:20:19;96549.34;;;26.39;47.84
33185;BME280;19550;42.872;25.494;2023-06-01T08:22:47;96552.91;;;26.46;45.74
33185;BME280;19550;42.872;25.494;2023-06-01T08:25:14;96554.53;;;26.47;45.59
33185;BME280;19550;42.872;25.494;2023-06-01T08:27:41;96554.56;;;26.44;46.19
33185;BME280;19550;42.872;25.494;2023-06-01T08:30:09;96542.59;;;26.60;45.37
33185;BME280;19550;42.872;25.494;2023-06-01T08:32:36;96543.94;;;26.03;45.61
33185;BME280;19550;42.872;25.494;2023-06-01T08:35:05;96543.94;;;26.00;49.05
33185;BME280;19550;42.872;25.494;2023-06-01T08:37:33;96542.59;;;26.19;47.38
33185;BME280;19550;42.872;25.494;2023-06-01T08:40:00;96531.81;;;26.44;42.48
33185;BME280;19550;42.872;25.494;2023-06-01T08:42:32;96534.31;;;26.76;42.24
33185;BME280;19550;42.872;25.494;2023-06-01T08:45:04;96532.78;;;26.27;42.09
33185;BME280;19550;42.872;25.494;2023-06-01T08:47:35;96534.75;;;25.85;45.77
33185;BME280;19550;42.872;25.494;2023-06-01T08:50:04;96531.31;;;26.08;44.54
33185;BME280;19550;42.872;25.494;2023-06-01T08:52:34;96524.13;;;26.41;42.98
33185;BME280;19550;42.872;25.494;2023-06-01T08:55:01;96523.94;;;26.14;45.46
33185;BME280;19550;42.872;25.494;2023-06-01T08:57:28;96525.19;;;26.58;44.12
33185;BME280;19550;42.872;25.494;2023-06-01T08:59:55;96514.34;;;26.79;48.57
33185;BME280;19550;42.872;25.494;2023-06-01T09:02:22;96512.72;;;27.16;48.89
33185;BME280;19550;42.872;25.494;2023-06-01T09:04:50;96508.88;;;27.29;50.19
33185;BME280;19550;42.872;25.494;2023-06-01T09:07:17;96510.22;;;27.48;49.28
33185;BME280;19550;42.872;25.494;2023-06-01T09:09:46;96509.16;;;27.69;49.08
33185;BME280;19550;42.872;25.494;2023-06-01T09:12:21;96515.00;;;27.85;46.83
33185;BME280;19550;42.872;25.494;2023-06-01T09:14:51;96508.63;;;28.01;46.36
33185;BME280;19550;42.872;25.494;2023-06-01T09:17:33;96509.81;;;28.03;47.00
33185;BME280;19550;42.872;25.494;2023-06-01T09:20:01;96511.91;;;27.99;48.19
33185;BME280;19550;42.872;25.494;2023-06-01T09:22:38;96527.03;;;27.39;50.37
33185;BME280;19550;42.872;25.494;2023-06-01T09:25:08;96509.94;;;27.39;56.38
33185;BME280;19550;42.872;25.494;2023-06-01T09:27:46;96516.50;;;27.36;53.75
33185;BME280;19550;42.872;25.494;2023-06-01T09:30:13;96514.06;;;27.38;52.52
33185;BME280;19550;42.872;25.494;2023-06-01T09:32:41;96510.50;;;27.31;51.58
33185;BME280;19550;42.872;25.494;2023-06-01T09:35:08;96503.13;;;27.63;53.13
33185;BME280;19550;42.872;25.494;2023-06-01T09:37:37;96508.22;;;27.18;56.31
33185;BME280;19550;42.872;25.494;2023-06-01T09:40:17;96508.41;;;27.04;58.50
33185;BME280;19550;42.872;25.494;2023-06-01T09:42:44;96505.97;;;27.03;61.29
33185;BME280;19550;42.872;25.494;2023-06-01T09:45:16;96504.75;;;27.04;58.69
33185;BME280;19550;42.872;25.494;2023-06-01T09:47:43;96506.91;;;26.59;58.28
33185;BME280;19550;42.872;25.494;2023-06-01T09:50:10;96503.13;;;26.28;58.87
33185;BME280;19550;42.872;25.494;2023-06-01T09:52:37;96516.84;;;25.92;60.04
33185;BME280;19550;42.872;25.494;2023-06-01T09:55:06;96505.69;;;25.63;62.80
33185;BME280;19550;42.872;25.494;2023-06-01T09:57:35;96502.88;;;25.60;63.51
33185;BME280;19550;42.872;25.494;2023-06-01T10:00:03;96505.06;;;25.31;63.75
33185;BME280;19550;42.872;25.494;2023-06-01T10:02:32;96501.81;;;25.29;66.27
33185;BME280;19550;42.872;25.494;2023-06-01T10:04:59;96489.25;;;25.26;64.45
33185;BME280;19550;42.872;25.494;2023-06-01T10:07:28;96491.72;;;25.21;65.32
33185;BME280;19550;42.872;25.494;2023-06-01T10:09:57;96485.25;;;25.24;69.56
33185;BME280;19550;42.872;25.494;2023-06-01T10:12:25;96489.78;;;25.07;65.91
33185;BME280;19550;42.872;25.494;2023-06-01T10:14:55;96488.97;;;25.10;64.08
33185;BME280;19550;42.872;25.494;2023-06-01T10:17:22;96492.22;;;25.12;63.90
33185;BME280;19550;42.872;25.494;2023-06-01T10:19:49;96484.41;;;25.27;63.77
33185;BME280;19550;42.872;25.494;2023-06-01T10:22:16;96488.03;;;25.31;64.87
33185;BME280;19550;42.872;25.494;2023-06-01T10:24:44;96490.44;;;25.36;64.77
33185;BME280;19550;42.872;25.494;2023-06-01T10:27:16;96484.72;;;25.43;64.52
33185;BME280;19550;42.872;25.494;2023-06-01T10:29:46;96478.53;;;25.62;63.26
33185;BME280;19550;42.872;25.494;2023-06-01T10:32:43;96483.34;;;26.13;59.31
33185;BME280;19550;42.872;25.494;2023-06-01T10:35:51;96475.72;;;26.48;57.27
33185;BME280;19550;42.872;25.494;2023-06-01T10:38:27;96471.31;;;27.11;52.34
33185;BME280;19550;42.872;25.494;2023-06-01T10:44:03;96462.84;;;28.12;53.32
33185;BME280;19550;42.872;25.494;2023-06-01T10:46:38;96464.59;;;28.29;50.98
33185;BME280;19550;42.872;25.494;2023-06-01T10:49:07;96467.75;;;28.34;48.30
33185;BME280;19550;42.872;25.494;2023-06-01T10:51:34;96451.19;;;28.69;50.44
33185;BME280;19550;42.872;25.494;2023-06-01T10:54:27;96451.31;;;28.85;45.43
33185;BME280;19550;42.872;25.494;2023-06-01T10:57:20;96456.66;;;29.19;45.01
33185;BME280;19550;42.872;25.494;2023-06-01T11:00:13;96451.63;;;29.07;45.73
33185;BME280;19550;42.872;25.494;2023-06-01T11:02:48;96447.31;;;29.38;44.34
33185;BME280;19550;42.872;25.494;2023-06-01T11:05:36;96445.88;;;29.27;52.03
33185;BME280;19550;42.872;25.494;2023-06-01T11:08:03;96438.19;;;28.88;54.77
33185;BME280;19550;42.872;25.494;2023-06-01T11:10:55;96443.44;;;28.69;53.93
33185;BME280;19550;42.872;25.494;2023-06-01T11:13:24;96438.50;;;28.30;54.53
33185;BME280;19550;42.872;25.494;2023-06-01T11:18:58;96427.72;;;27.18;58.58
33185;BME280;19550;42.872;25.494;2023-06-01T11:21:27;96437.41;;;26.94;58.93
33185;BME280;19550;42.872;25.494;2023-06-01T11:23:56;96441.34;;;26.69;60.00
33185;BME280;19550;42.872;25.494;2023-06-01T11:26:25;96438.28;;;26.53;60.69
33185;BME280;19550;42.872;25.494;2023-06-01T11:29:03;96441.91;;;26.16;62.54
33185;BME280;19550;42.872;25.494;2023-06-01T11:31:34;96427.72;;;26.16;63.40
33185;BME280;19550;42.872;25.494;2023-06-01T11:34:02;96425.94;;;25.92;64.81
33185;BME280;19550;42.872;25.494;2023-06-01T11:36:35;96429.25;;;25.83;69.68
33185;BME280;19550;42.872;25.494;2023-06-01T11:39:02;96435.34;;;25.30;66.03
33185;BME280;19550;42.872;25.494;2023-06-01T11:41:31;96421.56;;;25.28;73.02
33185;BME280;19550;42.872;25.494;2023-06-01T11:43:58;96423.34;;;25.05;71.82
33185;BME280;19550;42.872;25.494;2023-06-01T11:46:25;96416.09;;;24.97;67.02
33185;BME280;19550;42.872;25.494;2023-06-01T11:49:00;96421.50;;;24.66;67.49
33185;BME280;19550;42.872;25.494;2023-06-01T11:51:29;96415.09;;;24.48;69.13
33185;BME280;19550;42.872;25.494;2023-06-01T11:54:00;96419.53;;;24.49;78.43
33185;BME280;19550;42.872;25.494;2023-06-01T11:56:28;96417.66;;;23.96;71.85
33185;BME280;19550;42.872;25.494;2023-06-01T11:58:59;96422.97;;;23.59;75.38
33185;BME280;19550;42.872;25.494;2023-06-01T12:01:26;96408.38;;;23.25;72.78
33185;BME280;19550;42.872;25.494;2023-06-01T12:03:54;96418.47;;;23.29;78.28
33185;BME280;19550;42.872;25.494;2023-06-01T12:06:23;96409.56;;;23.06;83.64
33185;BME280;19550;42.872;25.494;2023-06-01T12:08:50;96408.97;;;22.40;100.00
33185;BME280;19550;42.872;25.494;2023-06-01T12:11:21;96414.53;;;21.13;100.00
33185;BME280;19550;42.872;25.494;2023-06-01T12:13:51;96417.81;;;21.19;100.00
33185;BME280;19550;42.872;25.494;2023-06-01T12:16:18;96412.19;;;21.19;100.00
33185;BME280;19550;42.872;25.494;2023-06-01T12:18:45;96407.19;;;21.09;100.00
33185;BME280;19550;42.872;25.494;2023-06-01T12:21:13;96411.06;;;20.90;100.00
33185;BME280;19550;42.872;25.494;2023-06-01T12:23:40;96417.81;;;20.45;100.00
33185;BME280;19550;42.872;25.494;2023-06-01T12:26:08;96428.88;;;20.31;100.00
33185;BME280;19550;42.872;25.494;2023-06-01T12:28:50;96414.78;;;20.27;100.00
33185;BME280;19550;42.872;25.494;2023-06-01T12:31:20;96421.16;;;20.24;100.00
33185;BME280;19550;42.872;25.494;2023-06-01T12:33:48;96430.09;;;20.00;100.00
33185;BME280;19550;42.872;25.494;2023-06-01T12:36:31;96421.38;;;19.56;100.00
33185;BME280;19550;42.872;25.494;2023-06-01T12:38:59;96423.97;;;19.68;100.00
33185;BME280;19550;42.872;25.494;2023-06-01T12:41:26;96417.91;;;19.39;100.00
33185;BME280;19550;42.872;25.494;2023-06-01T12:43:55;96428.22;;;19.32;100.00
33185;BME280;19550;42.872;25.494;2023-06-01T12:46:24;96431.53;;;19.37;100.00
33185;BME280;19550;42.872;25.494;2023-06-01T12:48:53;96433.97;;;19.16;100.00
33185;BME280;19550;42.872;25.494;2023-06-01T12:51:20;96445.03;;;19.05;100.00
33185;BME280;19550;42.872;25.494;2023-06-01T12:53:47;96444.84;;;19.18;100.00
33185;BME280;19550;42.872;25.494;2023-06-01T12:56:14;96439.09;;;19.11;100.00
33185;BME280;19550;42.872;25.494;2023-06-01T12:58:42;96448.28;;;19.08;100.00
33185;BME280;19550;42.872;25.494;2023-06-01T13:01:10;96450.13;;;18.77;100.00